RJEO(METAR)
08/23 14:00
RJEO 230500Z 09015KT 9999 FEW015 SCT030 BKNXXX 23/20 Q1000 RMK
A2953=
戻る
トップページへ戻る
IMOC Co,.Ltd.